sensor_id;sensor_type;location;lat;lon;timestamp;P1;durP1;ratioP1;P2;durP2;ratioP2
15645;SDS011;7922;43.622;1.476;2022-10-31T00:01:20;12.73;;;6.63;;
15645;SDS011;7922;43.622;1.476;2022-10-31T00:03:45;11.47;;;6.10;;
15645;SDS011;7922;43.622;1.476;2022-10-31T00:06:11;15.83;;;7.40;;
15645;SDS011;7922;43.622;1.476;2022-10-31T00:08:36;14.03;;;6.60;;
15645;SDS011;7922;43.622;1.476;2022-10-31T00:11:02;11.93;;;6.30;;
15645;SDS011;7922;43.622;1.476;2022-10-31T00:13:27;17.23;;;6.97;;
15645;SDS011;7922;43.622;1.476;2022-10-31T00:15:52;15.33;;;6.63;;
15645;SDS011;7922;43.622;1.476;2022-10-31T00:18:18;12.27;;;6.50;;
15645;SDS011;7922;43.622;1.476;2022-10-31T00:20:43;12.47;;;5.63;;
15645;SDS011;7922;43.622;1.476;2022-10-31T00:23:09;11.03;;;6.23;;
15645;SDS011;7922;43.622;1.476;2022-10-31T00:25:36;13.23;;;6.57;;
15645;SDS011;7922;43.622;1.476;2022-10-31T00:28:03;14.43;;;6.57;;
15645;SDS011;7922;43.622;1.476;2022-10-31T00:30:29;11.63;;;6.57;;
15645;SDS011;7922;43.622;1.476;2022-10-31T00:32:54;12.97;;;6.40;;
15645;SDS011;7922;43.622;1.476;2022-10-31T00:35:20;13.70;;;6.50;;
15645;SDS011;7922;43.622;1.476;2022-10-31T00:37:45;16.20;;;7.07;;
15645;SDS011;7922;43.622;1.476;2022-10-31T00:40:11;15.03;;;7.57;;
15645;SDS011;7922;43.622;1.476;2022-10-31T00:42:36;15.27;;;9.07;;
15645;SDS011;7922;43.622;1.476;2022-10-31T00:45:02;20.73;;;9.83;;
15645;SDS011;7922;43.622;1.476;2022-10-31T00:47:27;17.47;;;9.73;;
15645;SDS011;7922;43.622;1.476;2022-10-31T00:49:53;19.13;;;10.23;;
15645;SDS011;7922;43.622;1.476;2022-10-31T00:52:18;19.57;;;9.83;;
15645;SDS011;7922;43.622;1.476;2022-10-31T00:54:43;18.23;;;9.73;;
15645;SDS011;7922;43.622;1.476;2022-10-31T00:57:09;15.63;;;9.20;;
15645;SDS011;7922;43.622;1.476;2022-10-31T00:59:34;16.10;;;9.83;;
15645;SDS011;7922;43.622;1.476;2022-10-31T01:01:59;18.83;;;9.37;;
15645;SDS011;7922;43.622;1.476;2022-10-31T01:04:25;21.87;;;9.47;;
15645;SDS011;7922;43.622;1.476;2022-10-31T01:06:50;16.50;;;9.27;;
15645;SDS011;7922;43.622;1.476;2022-10-31T01:09:15;16.40;;;9.43;;
15645;SDS011;7922;43.622;1.476;2022-10-31T01:11:41;15.47;;;8.70;;
15645;SDS011;7922;43.622;1.476;2022-10-31T01:14:06;19.57;;;8.70;;
15645;SDS011;7922;43.622;1.476;2022-10-31T01:16:33;15.23;;;8.63;;
15645;SDS011;7922;43.622;1.476;2022-10-31T01:18:58;16.00;;;8.70;;
15645;SDS011;7922;43.622;1.476;2022-10-31T01:21:25;13.83;;;8.30;;
15645;SDS011;7922;43.622;1.476;2022-10-31T01:23:55;14.97;;;8.23;;
15645;SDS011;7922;43.622;1.476;2022-10-31T01:26:22;15.07;;;8.23;;
15645;SDS011;7922;43.622;1.476;2022-10-31T01:29:22;10.20;;;8.03;;
15645;SDS011;7922;43.622;1.476;2022-10-31T01:31:40;14.40;;;7.80;;
15645;SDS011;7922;43.622;1.476;2022-10-31T01:34:06;16.27;;;8.20;;
15645;SDS011;7922;43.622;1.476;2022-10-31T01:36:33;19.47;;;9.23;;
15645;SDS011;7922;43.622;1.476;2022-10-31T01:39:00;14.17;;;8.47;;
15645;SDS011;7922;43.622;1.476;2022-10-31T01:41:35;14.30;;;8.57;;
15645;SDS011;7922;43.622;1.476;2022-10-31T01:47:06;13.80;;;9.20;;
15645;SDS011;7922;43.622;1.476;2022-10-31T01:52:24;17.90;;;9.43;;
15645;SDS011;7922;43.622;1.476;2022-10-31T01:54:53;14.67;;;8.33;;
15645;SDS011;7922;43.622;1.476;2022-10-31T01:57:21;20.43;;;10.00;;
15645;SDS011;7922;43.622;1.476;2022-10-31T01:59:48;16.30;;;9.17;;
15645;SDS011;7922;43.622;1.476;2022-10-31T02:02:15;14.97;;;10.07;;
15645;SDS011;7922;43.622;1.476;2022-10-31T02:04:41;12.90;;;9.00;;
15645;SDS011;7922;43.622;1.476;2022-10-31T02:09:51;17.93;;;9.60;;
15645;SDS011;7922;43.622;1.476;2022-10-31T02:12:18;15.83;;;8.97;;
15645;SDS011;7922;43.622;1.476;2022-10-31T02:14:43;13.30;;;8.83;;
15645;SDS011;7922;43.622;1.476;2022-10-31T02:17:09;14.63;;;8.77;;
15645;SDS011;7922;43.622;1.476;2022-10-31T02:19:38;23.77;;;9.43;;
15645;SDS011;7922;43.622;1.476;2022-10-31T02:22:16;14.07;;;9.23;;
15645;SDS011;7922;43.622;1.476;2022-10-31T02:30:41;17.77;;;9.37;;
15645;SDS011;7922;43.622;1.476;2022-10-31T02:35:57;17.07;;;9.10;;
15645;SDS011;7922;43.622;1.476;2022-10-31T02:38:43;18.40;;;9.30;;
15645;SDS011;7922;43.622;1.476;2022-10-31T02:46:28;13.83;;;9.57;;
15645;SDS011;7922;43.622;1.476;2022-10-31T02:49:00;15.87;;;9.53;;
15645;SDS011;7922;43.622;1.476;2022-10-31T02:51:30;15.03;;;9.90;;
15645;SDS011;7922;43.622;1.476;2022-10-31T02:53:55;15.50;;;9.27;;
15645;SDS011;7922;43.622;1.476;2022-10-31T02:56:21;14.80;;;9.70;;
15645;SDS011;7922;43.622;1.476;2022-10-31T02:58:51;11.40;;;9.00;;
15645;SDS011;7922;43.622;1.476;2022-10-31T03:14:43;16.10;;;8.90;;
15645;SDS011;7922;43.622;1.476;2022-10-31T03:17:12;16.40;;;9.17;;
15645;SDS011;7922;43.622;1.476;2022-10-31T03:19:42;16.10;;;10.00;;
15645;SDS011;7922;43.622;1.476;2022-10-31T03:22:17;16.63;;;10.00;;
15645;SDS011;7922;43.622;1.476;2022-10-31T03:24:46;20.57;;;9.90;;
15645;SDS011;7922;43.622;1.476;2022-10-31T03:27:13;14.90;;;9.00;;
15645;SDS011;7922;43.622;1.476;2022-10-31T03:29:41;13.87;;;9.70;;
15645;SDS011;7922;43.622;1.476;2022-10-31T03:34:43;19.93;;;9.90;;
15645;SDS011;7922;43.622;1.476;2022-10-31T03:37:10;21.30;;;9.90;;
15645;SDS011;7922;43.622;1.476;2022-10-31T03:39:37;17.57;;;9.67;;
15645;SDS011;7922;43.622;1.476;2022-10-31T03:42:23;16.70;;;10.67;;
15645;SDS011;7922;43.622;1.476;2022-10-31T03:44:51;18.43;;;9.77;;
15645;SDS011;7922;43.622;1.476;2022-10-31T03:47:21;17.60;;;9.80;;
15645;SDS011;7922;43.622;1.476;2022-10-31T03:49:46;18.50;;;10.47;;
15645;SDS011;7922;43.622;1.476;2022-10-31T03:52:14;18.97;;;10.33;;
15645;SDS011;7922;43.622;1.476;2022-10-31T03:54:46;20.53;;;10.40;;
15645;SDS011;7922;43.622;1.476;2022-10-31T03:57:35;18.37;;;9.70;;
15645;SDS011;7922;43.622;1.476;2022-10-31T04:00:04;17.20;;;10.17;;
15645;SDS011;7922;43.622;1.476;2022-10-31T04:02:30;17.20;;;9.90;;
15645;SDS011;7922;43.622;1.476;2022-10-31T04:04:57;20.57;;;9.63;;
15645;SDS011;7922;43.622;1.476;2022-10-31T04:07:25;23.70;;;10.10;;
15645;SDS011;7922;43.622;1.476;2022-10-31T04:09:53;16.43;;;9.77;;
15645;SDS011;7922;43.622;1.476;2022-10-31T04:12:19;17.33;;;9.73;;
15645;SDS011;7922;43.622;1.476;2022-10-31T04:14:46;17.33;;;8.97;;
15645;SDS011;7922;43.622;1.476;2022-10-31T04:17:13;13.57;;;9.53;;
15645;SDS011;7922;43.622;1.476;2022-10-31T04:19:40;14.80;;;9.60;;
15645;SDS011;7922;43.622;1.476;2022-10-31T04:22:06;19.73;;;9.90;;
15645;SDS011;7922;43.622;1.476;2022-10-31T04:24:31;19.30;;;9.87;;
15645;SDS011;7922;43.622;1.476;2022-10-31T04:26:56;16.90;;;9.57;;
15645;SDS011;7922;43.622;1.476;2022-10-31T04:29:22;17.03;;;9.77;;
15645;SDS011;7922;43.622;1.476;2022-10-31T04:31:47;19.60;;;9.93;;
15645;SDS011;7922;43.622;1.476;2022-10-31T04:34:12;16.07;;;9.07;;
15645;SDS011;7922;43.622;1.476;2022-10-31T04:36:38;17.53;;;9.53;;
15645;SDS011;7922;43.622;1.476;2022-10-31T04:39:03;17.10;;;9.63;;
15645;SDS011;7922;43.622;1.476;2022-10-31T04:41:29;19.90;;;9.80;;
15645;SDS011;7922;43.622;1.476;2022-10-31T04:43:54;17.60;;;9.93;;
15645;SDS011;7922;43.622;1.476;2022-10-31T04:46:19;13.67;;;9.50;;
15645;SDS011;7922;43.622;1.476;2022-10-31T04:48:45;16.17;;;10.07;;
15645;SDS011;7922;43.622;1.476;2022-10-31T04:51:10;13.50;;;9.03;;
15645;SDS011;7922;43.622;1.476;2022-10-31T04:53:36;15.30;;;9.13;;
15645;SDS011;7922;43.622;1.476;2022-10-31T04:56:01;13.67;;;9.83;;
15645;SDS011;7922;43.622;1.476;2022-10-31T04:58:27;16.10;;;9.27;;
15645;SDS011;7922;43.622;1.476;2022-10-31T05:00:53;14.97;;;8.63;;
15645;SDS011;7922;43.622;1.476;2022-10-31T05:03:19;14.50;;;9.50;;
15645;SDS011;7922;43.622;1.476;2022-10-31T05:05:44;15.40;;;9.23;;
15645;SDS011;7922;43.622;1.476;2022-10-31T05:08:10;13.50;;;9.00;;
15645;SDS011;7922;43.622;1.476;2022-10-31T05:10:35;14.80;;;9.37;;
15645;SDS011;7922;43.622;1.476;2022-10-31T05:13:01;14.77;;;9.27;;
15645;SDS011;7922;43.622;1.476;2022-10-31T05:15:28;16.90;;;9.50;;
15645;SDS011;7922;43.622;1.476;2022-10-31T05:17:53;13.47;;;8.07;;
15645;SDS011;7922;43.622;1.476;2022-10-31T05:20:20;16.17;;;9.57;;
15645;SDS011;7922;43.622;1.476;2022-10-31T05:22:50;13.47;;;9.30;;
15645;SDS011;7922;43.622;1.476;2022-10-31T05:25:17;16.60;;;8.87;;
15645;SDS011;7922;43.622;1.476;2022-10-31T05:27:45;12.60;;;8.47;;
15645;SDS011;7922;43.622;1.476;2022-10-31T05:30:12;17.03;;;8.73;;
15645;SDS011;7922;43.622;1.476;2022-10-31T05:32:40;21.33;;;8.53;;
15645;SDS011;7922;43.622;1.476;2022-10-31T05:35:07;14.97;;;8.80;;
15645;SDS011;7922;43.622;1.476;2022-10-31T05:37:34;16.13;;;9.37;;
15645;SDS011;7922;43.622;1.476;2022-10-31T05:40:00;12.20;;;9.37;;
15645;SDS011;7922;43.622;1.476;2022-10-31T05:42:26;14.93;;;9.47;;
15645;SDS011;7922;43.622;1.476;2022-10-31T05:44:51;14.60;;;9.03;;
15645;SDS011;7922;43.622;1.476;2022-10-31T05:47:17;16.80;;;9.27;;
15645;SDS011;7922;43.622;1.476;2022-10-31T05:49:42;13.97;;;8.70;;
15645;SDS011;7922;43.622;1.476;2022-10-31T05:52:07;13.50;;;9.13;;
15645;SDS011;7922;43.622;1.476;2022-10-31T05:54:33;18.30;;;8.93;;
15645;SDS011;7922;43.622;1.476;2022-10-31T05:56:58;15.20;;;9.60;;
15645;SDS011;7922;43.622;1.476;2022-10-31T05:59:23;15.23;;;9.30;;
15645;SDS011;7922;43.622;1.476;2022-10-31T06:01:49;19.27;;;9.93;;
15645;SDS011;7922;43.622;1.476;2022-10-31T06:04:14;17.50;;;9.50;;
15645;SDS011;7922;43.622;1.476;2022-10-31T06:06:40;14.23;;;9.43;;
15645;SDS011;7922;43.622;1.476;2022-10-31T06:09:05;15.03;;;8.80;;
15645;SDS011;7922;43.622;1.476;2022-10-31T06:11:30;14.43;;;9.00;;
15645;SDS011;7922;43.622;1.476;2022-10-31T06:13:56;14.23;;;8.80;;
15645;SDS011;7922;43.622;1.476;2022-10-31T06:16:21;13.63;;;9.03;;
15645;SDS011;7922;43.622;1.476;2022-10-31T06:18:47;15.57;;;8.70;;
15645;SDS011;7922;43.622;1.476;2022-10-31T06:21:12;13.53;;;8.23;;
15645;SDS011;7922;43.622;1.476;2022-10-31T06:23:37;13.53;;;7.80;;
15645;SDS011;7922;43.622;1.476;2022-10-31T06:26:03;12.23;;;8.20;;
15645;SDS011;7922;43.622;1.476;2022-10-31T06:28:28;13.00;;;8.90;;
15645;SDS011;7922;43.622;1.476;2022-10-31T06:30:54;14.70;;;9.10;;
15645;SDS011;7922;43.622;1.476;2022-10-31T06:33:19;13.70;;;8.80;;
15645;SDS011;7922;43.622;1.476;2022-10-31T06:35:45;11.53;;;8.87;;
15645;SDS011;7922;43.622;1.476;2022-10-31T06:38:11;16.07;;;9.70;;
15645;SDS011;7922;43.622;1.476;2022-10-31T06:40:37;15.87;;;9.60;;
15645;SDS011;7922;43.622;1.476;2022-10-31T06:43:02;14.57;;;8.80;;
15645;SDS011;7922;43.622;1.476;2022-10-31T06:45:28;17.30;;;9.20;;
15645;SDS011;7922;43.622;1.476;2022-10-31T06:47:53;16.23;;;9.73;;
15645;SDS011;7922;43.622;1.476;2022-10-31T06:50:20;14.37;;;9.57;;
15645;SDS011;7922;43.622;1.476;2022-10-31T06:52:52;14.23;;;8.43;;
15645;SDS011;7922;43.622;1.476;2022-10-31T06:55:19;16.93;;;9.77;;
15645;SDS011;7922;43.622;1.476;2022-10-31T06:57:51;15.23;;;8.83;;
15645;SDS011;7922;43.622;1.476;2022-10-31T07:00:20;13.10;;;9.67;;
15645;SDS011;7922;43.622;1.476;2022-10-31T07:05:42;20.10;;;10.60;;
15645;SDS011;7922;43.622;1.476;2022-10-31T07:08:09;17.67;;;10.67;;
15645;SDS011;7922;43.622;1.476;2022-10-31T07:10:36;15.23;;;11.23;;
15645;SDS011;7922;43.622;1.476;2022-10-31T07:13:03;18.50;;;11.43;;
15645;SDS011;7922;43.622;1.476;2022-10-31T07:15:33;16.00;;;11.27;;
15645;SDS011;7922;43.622;1.476;2022-10-31T07:18:00;19.53;;;11.63;;
15645;SDS011;7922;43.622;1.476;2022-10-31T07:20:26;16.97;;;9.83;;
15645;SDS011;7922;43.622;1.476;2022-10-31T07:22:52;15.77;;;10.33;;
15645;SDS011;7922;43.622;1.476;2022-10-31T07:25:17;17.83;;;10.27;;
15645;SDS011;7922;43.622;1.476;2022-10-31T07:27:43;15.40;;;10.30;;
15645;SDS011;7922;43.622;1.476;2022-10-31T07:30:09;14.93;;;9.37;;
15645;SDS011;7922;43.622;1.476;2022-10-31T07:32:43;14.30;;;9.63;;
15645;SDS011;7922;43.622;1.476;2022-10-31T07:35:14;18.03;;;9.33;;
15645;SDS011;7922;43.622;1.476;2022-10-31T07:37:41;15.87;;;9.37;;
15645;SDS011;7922;43.622;1.476;2022-10-31T07:40:06;18.00;;;9.80;;
15645;SDS011;7922;43.622;1.476;2022-10-31T07:42:43;13.63;;;9.97;;
15645;SDS011;7922;43.622;1.476;2022-10-31T07:45:10;15.07;;;9.60;;
15645;SDS011;7922;43.622;1.476;2022-10-31T07:47:40;14.70;;;8.63;;
15645;SDS011;7922;43.622;1.476;2022-10-31T07:50:07;13.83;;;7.80;;
15645;SDS011;7922;43.622;1.476;2022-10-31T07:52:33;11.97;;;8.70;;
15645;SDS011;7922;43.622;1.476;2022-10-31T07:54:59;15.17;;;8.73;;
15645;SDS011;7922;43.622;1.476;2022-10-31T07:57:24;15.53;;;8.70;;
15645;SDS011;7922;43.622;1.476;2022-10-31T07:59:50;10.87;;;7.63;;
15645;SDS011;7922;43.622;1.476;2022-10-31T08:02:15;12.83;;;8.77;;
15645;SDS011;7922;43.622;1.476;2022-10-31T08:04:41;13.37;;;8.37;;
15645;SDS011;7922;43.622;1.476;2022-10-31T08:07:06;15.83;;;8.70;;
15645;SDS011;7922;43.622;1.476;2022-10-31T08:09:31;14.43;;;9.10;;
15645;SDS011;7922;43.622;1.476;2022-10-31T08:11:57;14.73;;;8.57;;
15645;SDS011;7922;43.622;1.476;2022-10-31T08:14:22;16.60;;;8.57;;
15645;SDS011;7922;43.622;1.476;2022-10-31T08:16:47;16.40;;;8.17;;
15645;SDS011;7922;43.622;1.476;2022-10-31T08:19:13;17.63;;;8.50;;
15645;SDS011;7922;43.622;1.476;2022-10-31T08:21:38;15.40;;;8.50;;
15645;SDS011;7922;43.622;1.476;2022-10-31T08:24:04;16.87;;;8.07;;
15645;SDS011;7922;43.622;1.476;2022-10-31T08:26:30;16.57;;;8.40;;
15645;SDS011;7922;43.622;1.476;2022-10-31T08:28:55;18.67;;;8.93;;
15645;SDS011;7922;43.622;1.476;2022-10-31T08:31:21;16.03;;;8.47;;
15645;SDS011;7922;43.622;1.476;2022-10-31T08:33:47;14.10;;;7.73;;
15645;SDS011;7922;43.622;1.476;2022-10-31T08:36:13;15.53;;;8.23;;
15645;SDS011;7922;43.622;1.476;2022-10-31T08:38:38;17.97;;;7.63;;
15645;SDS011;7922;43.622;1.476;2022-10-31T08:41:04;14.20;;;7.07;;
15645;SDS011;7922;43.622;1.476;2022-10-31T08:43:29;12.80;;;7.03;;
15645;SDS011;7922;43.622;1.476;2022-10-31T08:45:54;13.27;;;6.93;;
15645;SDS011;7922;43.622;1.476;2022-10-31T08:48:20;14.67;;;6.43;;
15645;SDS011;7922;43.622;1.476;2022-10-31T08:50:46;14.53;;;6.47;;
15645;SDS011;7922;43.622;1.476;2022-10-31T08:53:13;15.07;;;6.50;;
15645;SDS011;7922;43.622;1.476;2022-10-31T08:55:39;15.13;;;6.20;;
15645;SDS011;7922;43.622;1.476;2022-10-31T08:58:05;15.47;;;7.40;;
15645;SDS011;7922;43.622;1.476;2022-10-31T09:00:32;13.40;;;5.80;;
15645;SDS011;7922;43.622;1.476;2022-10-31T09:02:59;13.10;;;6.20;;
15645;SDS011;7922;43.622;1.476;2022-10-31T09:05:34;14.27;;;6.30;;
15645;SDS011;7922;43.622;1.476;2022-10-31T09:08:01;14.87;;;6.07;;
15645;SDS011;7922;43.622;1.476;2022-10-31T09:10:28;11.73;;;6.53;;
15645;SDS011;7922;43.622;1.476;2022-10-31T09:13:00;14.50;;;6.37;;
15645;SDS011;7922;43.622;1.476;2022-10-31T09:15:31;16.07;;;6.87;;
15645;SDS011;7922;43.622;1.476;2022-10-31T09:17:57;12.73;;;6.37;;
15645;SDS011;7922;43.622;1.476;2022-10-31T09:20:22;14.93;;;6.07;;
15645;SDS011;7922;43.622;1.476;2022-10-31T09:22:54;13.30;;;6.23;;
15645;SDS011;7922;43.622;1.476;2022-10-31T09:25:30;13.87;;;6.73;;
15645;SDS011;7922;43.622;1.476;2022-10-31T09:27:58;11.93;;;5.90;;
15645;SDS011;7922;43.622;1.476;2022-10-31T09:30:28;14.23;;;6.27;;
15645;SDS011;7922;43.622;1.476;2022-10-31T09:32:58;10.43;;;6.20;;
15645;SDS011;7922;43.622;1.476;2022-10-31T09:35:25;12.43;;;5.97;;
15645;SDS011;7922;43.622;1.476;2022-10-31T09:37:57;12.47;;;6.23;;
15645;SDS011;7922;43.622;1.476;2022-10-31T09:40:37;11.40;;;5.40;;
15645;SDS011;7922;43.622;1.476;2022-10-31T09:45:51;14.73;;;5.93;;
15645;SDS011;7922;43.622;1.476;2022-10-31T09:51:07;11.60;;;5.27;;
15645;SDS011;7922;43.622;1.476;2022-10-31T09:53:46;15.17;;;6.20;;
15645;SDS011;7922;43.622;1.476;2022-10-31T09:56:17;13.30;;;5.40;;
15645;SDS011;7922;43.622;1.476;2022-10-31T09:58:56;15.83;;;6.07;;
15645;SDS011;7922;43.622;1.476;2022-10-31T10:01:39;12.70;;;5.90;;
15645;SDS011;7922;43.622;1.476;2022-10-31T10:07:02;10.43;;;5.57;;
15645;SDS011;7922;43.622;1.476;2022-10-31T10:09:33;13.43;;;5.77;;
15645;SDS011;7922;43.622;1.476;2022-10-31T10:22:52;11.77;;;6.00;;
15645;SDS011;7922;43.622;1.476;2022-10-31T10:25:31;12.87;;;6.10;;
15645;SDS011;7922;43.622;1.476;2022-10-31T10:30:44;11.73;;;5.67;;
15645;SDS011;7922;43.622;1.476;2022-10-31T10:33:14;12.20;;;5.47;;
15645;SDS011;7922;43.622;1.476;2022-10-31T10:38:34;12.67;;;5.60;;
15645;SDS011;7922;43.622;1.476;2022-10-31T10:41:04;15.43;;;5.70;;
15645;SDS011;7922;43.622;1.476;2022-10-31T10:43:34;14.30;;;5.90;;
15645;SDS011;7922;43.622;1.476;2022-10-31T10:59:48;12.87;;;6.13;;
15645;SDS011;7922;43.622;1.476;2022-10-31T11:02:24;10.23;;;5.20;;
15645;SDS011;7922;43.622;1.476;2022-10-31T11:04:55;13.73;;;5.27;;
15645;SDS011;7922;43.622;1.476;2022-10-31T11:07:22;15.20;;;6.37;;
15645;SDS011;7922;43.622;1.476;2022-10-31T11:09:48;10.50;;;5.50;;
15645;SDS011;7922;43.622;1.476;2022-10-31T11:12:24;10.43;;;5.53;;
15645;SDS011;7922;43.622;1.476;2022-10-31T11:14:55;12.83;;;5.57;;
15645;SDS011;7922;43.622;1.476;2022-10-31T11:17:26;10.03;;;5.13;;
15645;SDS011;7922;43.622;1.476;2022-10-31T11:19:59;12.40;;;5.03;;
15645;SDS011;7922;43.622;1.476;2022-10-31T11:22:46;14.17;;;5.70;;
15645;SDS011;7922;43.622;1.476;2022-10-31T11:27:44;13.83;;;5.20;;
15645;SDS011;7922;43.622;1.476;2022-10-31T11:30:11;9.77;;;5.17;;
15645;SDS011;7922;43.622;1.476;2022-10-31T11:32:39;10.30;;;4.97;;
15645;SDS011;7922;43.622;1.476;2022-10-31T11:35:12;12.60;;;5.73;;
15645;SDS011;7922;43.622;1.476;2022-10-31T11:37:42;11.63;;;6.00;;
15645;SDS011;7922;43.622;1.476;2022-10-31T11:40:27;11.70;;;5.13;;
15645;SDS011;7922;43.622;1.476;2022-10-31T11:42:54;11.73;;;5.07;;
15645;SDS011;7922;43.622;1.476;2022-10-31T11:47:49;11.67;;;5.10;;
15645;SDS011;7922;43.622;1.476;2022-10-31T11:50:19;12.77;;;5.57;;
15645;SDS011;7922;43.622;1.476;2022-10-31T11:52:46;9.53;;;5.20;;
15645;SDS011;7922;43.622;1.476;2022-10-31T11:57:44;13.10;;;5.00;;
15645;SDS011;7922;43.622;1.476;2022-10-31T12:03:13;12.57;;;5.13;;
15645;SDS011;7922;43.622;1.476;2022-10-31T12:05:46;13.50;;;5.37;;
15645;SDS011;7922;43.622;1.476;2022-10-31T12:08:14;12.13;;;5.10;;
15645;SDS011;7922;43.622;1.476;2022-10-31T12:14:00;13.80;;;4.80;;
15645;SDS011;7922;43.622;1.476;2022-10-31T12:16:49;14.07;;;5.27;;
15645;SDS011;7922;43.622;1.476;2022-10-31T12:19:24;14.63;;;5.10;;
15645;SDS011;7922;43.622;1.476;2022-10-31T12:35:40;11.80;;;4.80;;
15645;SDS011;7922;43.622;1.476;2022-10-31T12:38:33;11.17;;;4.93;;
15645;SDS011;7922;43.622;1.476;2022-10-31T12:49:19;14.93;;;5.77;;
15645;SDS011;7922;43.622;1.476;2022-10-31T12:59:40;9.83;;;4.80;;
15645;SDS011;7922;43.622;1.476;2022-10-31T13:04:45;11.83;;;5.40;;
15645;SDS011;7922;43.622;1.476;2022-10-31T13:07:20;14.97;;;4.70;;
15645;SDS011;7922;43.622;1.476;2022-10-31T13:10:04;11.10;;;5.60;;
15645;SDS011;7922;43.622;1.476;2022-10-31T13:12:34;15.60;;;5.60;;
15645;SDS011;7922;43.622;1.476;2022-10-31T13:15:02;9.77;;;5.00;;
15645;SDS011;7922;43.622;1.476;2022-10-31T13:17:37;10.50;;;4.90;;
15645;SDS011;7922;43.622;1.476;2022-10-31T13:22:39;12.00;;;5.10;;
15645;SDS011;7922;43.622;1.476;2022-10-31T13:27:44;10.10;;;5.07;;
15645;SDS011;7922;43.622;1.476;2022-10-31T13:32:46;11.47;;;5.20;;
15645;SDS011;7922;43.622;1.476;2022-10-31T13:35:25;13.53;;;5.53;;
15645;SDS011;7922;43.622;1.476;2022-10-31T13:38:01;9.30;;;5.20;;
15645;SDS011;7922;43.622;1.476;2022-10-31T13:43:05;8.77;;;5.27;;
15645;SDS011;7922;43.622;1.476;2022-10-31T13:45:35;9.90;;;4.63;;
15645;SDS011;7922;43.622;1.476;2022-10-31T13:50:41;10.83;;;4.60;;
15645;SDS011;7922;43.622;1.476;2022-10-31T13:55:40;9.43;;;4.43;;
15645;SDS011;7922;43.622;1.476;2022-10-31T14:00:44;12.33;;;4.90;;
15645;SDS011;7922;43.622;1.476;2022-10-31T14:03:16;9.43;;;4.90;;
15645;SDS011;7922;43.622;1.476;2022-10-31T14:05:43;16.20;;;5.33;;
15645;SDS011;7922;43.622;1.476;2022-10-31T14:08:18;11.67;;;5.13;;
15645;SDS011;7922;43.622;1.476;2022-10-31T14:10:49;7.70;;;4.50;;
15645;SDS011;7922;43.622;1.476;2022-10-31T14:16:06;9.33;;;4.90;;
15645;SDS011;7922;43.622;1.476;2022-10-31T14:18:32;10.20;;;4.70;;
15645;SDS011;7922;43.622;1.476;2022-10-31T14:20:59;10.00;;;5.03;;
15645;SDS011;7922;43.622;1.476;2022-10-31T14:23:31;8.80;;;4.60;;
15645;SDS011;7922;43.622;1.476;2022-10-31T14:26:50;9.53;;;5.27;;
15645;SDS011;7922;43.622;1.476;2022-10-31T14:28:52;8.50;;;4.80;;
15645;SDS011;7922;43.622;1.476;2022-10-31T14:43:01;9.97;;;4.90;;
15645;SDS011;7922;43.622;1.476;2022-10-31T14:50:41;11.77;;;5.43;;
15645;SDS011;7922;43.622;1.476;2022-10-31T14:53:11;7.77;;;4.77;;
15645;SDS011;7922;43.622;1.476;2022-10-31T14:55:42;15.43;;;5.53;;
15645;SDS011;7922;43.622;1.476;2022-10-31T14:58:12;9.13;;;5.10;;
15645;SDS011;7922;43.622;1.476;2022-10-31T15:00:42;14.57;;;5.50;;
15645;SDS011;7922;43.622;1.476;2022-10-31T15:05:55;12.93;;;5.70;;
15645;SDS011;7922;43.622;1.476;2022-10-31T15:08:26;13.23;;;5.20;;
15645;SDS011;7922;43.622;1.476;2022-10-31T15:11:13;12.03;;;5.70;;
15645;SDS011;7922;43.622;1.476;2022-10-31T15:13:43;10.57;;;5.60;;
15645;SDS011;7922;43.622;1.476;2022-10-31T15:16:10;11.00;;;5.73;;
15645;SDS011;7922;43.622;1.476;2022-10-31T15:18:36;14.10;;;5.10;;
15645;SDS011;7922;43.622;1.476;2022-10-31T15:21:09;13.83;;;5.80;;
15645;SDS011;7922;43.622;1.476;2022-10-31T15:23:35;9.83;;;5.23;;
15645;SDS011;7922;43.622;1.476;2022-10-31T15:26:00;12.53;;;6.13;;
15645;SDS011;7922;43.622;1.476;2022-10-31T15:28:28;12.37;;;5.43;;
15645;SDS011;7922;43.622;1.476;2022-10-31T15:30:58;10.37;;;4.70;;
15645;SDS011;7922;43.622;1.476;2022-10-31T15:33:26;11.17;;;5.40;;
15645;SDS011;7922;43.622;1.476;2022-10-31T15:36:04;12.60;;;5.30;;
15645;SDS011;7922;43.622;1.476;2022-10-31T15:38:30;10.47;;;5.60;;
15645;SDS011;7922;43.622;1.476;2022-10-31T15:40:57;13.67;;;5.60;;
15645;SDS011;7922;43.622;1.476;2022-10-31T15:43:25;16.07;;;5.60;;
15645;SDS011;7922;43.622;1.476;2022-10-31T15:45:52;11.90;;;5.60;;
15645;SDS011;7922;43.622;1.476;2022-10-31T15:48:24;11.77;;;5.77;;
15645;SDS011;7922;43.622;1.476;2022-10-31T15:50:54;11.53;;;4.97;;
15645;SDS011;7922;43.622;1.476;2022-10-31T15:53:25;12.87;;;5.77;;
15645;SDS011;7922;43.622;1.476;2022-10-31T15:56:00;11.57;;;5.07;;
15645;SDS011;7922;43.622;1.476;2022-10-31T15:58:29;12.93;;;6.13;;
15645;SDS011;7922;43.622;1.476;2022-10-31T16:03:32;9.80;;;5.33;;
15645;SDS011;7922;43.622;1.476;2022-10-31T16:05:59;12.20;;;5.30;;
15645;SDS011;7922;43.622;1.476;2022-10-31T16:10:54;12.07;;;5.70;;
15645;SDS011;7922;43.622;1.476;2022-10-31T16:13:29;11.77;;;5.67;;
15645;SDS011;7922;43.622;1.476;2022-10-31T16:16:03;11.57;;;6.07;;
15645;SDS011;7922;43.622;1.476;2022-10-31T16:18:35;14.70;;;6.10;;
15645;SDS011;7922;43.622;1.476;2022-10-31T16:21:02;12.87;;;5.67;;
15645;SDS011;7922;43.622;1.476;2022-10-31T16:23:27;9.03;;;5.17;;
15645;SDS011;7922;43.622;1.476;2022-10-31T16:25:53;10.93;;;5.63;;
15645;SDS011;7922;43.622;1.476;2022-10-31T16:28:22;12.17;;;5.80;;
15645;SDS011;7922;43.622;1.476;2022-10-31T16:30:56;16.37;;;6.30;;
15645;SDS011;7922;43.622;1.476;2022-10-31T16:33:29;13.00;;;6.20;;
15645;SDS011;7922;43.622;1.476;2022-10-31T16:35:58;12.23;;;6.37;;
15645;SDS011;7922;43.622;1.476;2022-10-31T16:38:24;13.10;;;5.93;;
15645;SDS011;7922;43.622;1.476;2022-10-31T16:40:50;9.50;;;5.50;;
15645;SDS011;7922;43.622;1.476;2022-10-31T16:43:16;12.80;;;5.83;;
15645;SDS011;7922;43.622;1.476;2022-10-31T16:45:43;13.03;;;5.90;;
15645;SDS011;7922;43.622;1.476;2022-10-31T16:48:11;12.83;;;5.83;;
15645;SDS011;7922;43.622;1.476;2022-10-31T16:50:42;11.20;;;6.00;;
15645;SDS011;7922;43.622;1.476;2022-10-31T16:53:08;13.33;;;6.60;;
15645;SDS011;7922;43.622;1.476;2022-10-31T16:55:34;12.23;;;6.37;;
15645;SDS011;7922;43.622;1.476;2022-10-31T16:58:30;13.57;;;6.37;;
15645;SDS011;7922;43.622;1.476;2022-10-31T17:00:58;14.40;;;6.63;;
15645;SDS011;7922;43.622;1.476;2022-10-31T17:03:24;10.90;;;6.43;;
15645;SDS011;7922;43.622;1.476;2022-10-31T17:05:49;15.67;;;7.30;;
15645;SDS011;7922;43.622;1.476;2022-10-31T17:08:15;10.97;;;6.30;;
15645;SDS011;7922;43.622;1.476;2022-10-31T17:10:40;16.20;;;7.10;;
15645;SDS011;7922;43.622;1.476;2022-10-31T17:13:10;12.97;;;7.30;;
15645;SDS011;7922;43.622;1.476;2022-10-31T17:15:43;11.63;;;6.77;;
15645;SDS011;7922;43.622;1.476;2022-10-31T17:18:12;13.27;;;6.83;;
15645;SDS011;7922;43.622;1.476;2022-10-31T17:20:38;16.50;;;7.27;;
15645;SDS011;7922;43.622;1.476;2022-10-31T17:23:04;15.37;;;7.37;;
15645;SDS011;7922;43.622;1.476;2022-10-31T17:25:29;13.73;;;7.53;;
15645;SDS011;7922;43.622;1.476;2022-10-31T17:27:59;14.80;;;7.37;;
15645;SDS011;7922;43.622;1.476;2022-10-31T17:30:25;13.60;;;7.07;;
15645;SDS011;7922;43.622;1.476;2022-10-31T17:32:50;14.10;;;7.23;;
15645;SDS011;7922;43.622;1.476;2022-10-31T17:35:16;10.60;;;7.10;;
15645;SDS011;7922;43.622;1.476;2022-10-31T17:37:42;16.43;;;7.60;;
15645;SDS011;7922;43.622;1.476;2022-10-31T17:40:09;14.57;;;8.20;;
15645;SDS011;7922;43.622;1.476;2022-10-31T17:42:35;13.27;;;7.30;;
15645;SDS011;7922;43.622;1.476;2022-10-31T17:45:01;12.67;;;7.63;;
15645;SDS011;7922;43.622;1.476;2022-10-31T17:47:26;13.87;;;7.47;;